首页
METAR-TAF:

METAR-TAF

机场 :

阿雷格里港, 南里奥格兰德州, 巴西

小萨尔加多国际机场

纬度: 30-00S, 经度: 051-11W, 海拔: 3米

当前天气观测

该预报发布于43分钟前的14:00 UTC
风速4节,风向西转西北,在西之间变化
温度 26°C
湿度 79%
气压 1020 hPa
能见度10公里或以上
散云层高于1000英尺
散云层高于10000英尺

METAR: SBPA 251400Z 29004KT 260V010 9999 SCT010 SCT100 26/22 Q1020

时间: 11:43 (14:43 UTC)

预报

该预报发布于5小时和28分钟前的09:15 UTC
预报有效从25日的 12点(UTC)到 26日的 12点(UTC)
风速5节,风向东南
能見度: 9000
多云层高于1000英尺
成为
从 25日的 12点(UTC)到 25日的 14点(UTC)
风速6节,风向
能见度10公里或以上
散云层高于2000英尺
几率 40% :
短暂存在
从 25日的 18点(UTC)到 25日的 22点(UTC)
风速8节,风向北转西北
能見度: 0500
层高于200英尺

TAF: SBPA 250915Z 2512/2612 14005KT 9000 BKN010 TX30/2517Z TN18/2608Z BECMG 2512/2514 17006KT 9999 SCT020 PROB40 TEMPO 2518/2522 33008KT CAVOK P ROB40 2606/2612 0500 FG VV002 RMK PCO

超过4000个机场的气象观测和天气预报(METAR&TAF报告)。

可查询的气象台以黄色和红色小点在地图上表示。

将鼠标移到小点上方,可查看气象台名称。

然后点击查看天气观测和预报。

如需切换地图:点击带黑十字的绿色按钮放大地图;点击带横线的绿色按钮缩小地图;或者点击绿色箭头查看邻近地区的地图。


METAR-TAF: